Time;durP1;ratioP1;P1;durP2;ratioP2;P2;SDS_P1;SDS_P2;PMS_P1;PMS_P2;Temp;Humidity;BMP_temperature;BMP_pressure;BME280_temperature;BME280_humidity;BME280_pressure;Samples;Min_cycle;Max_cycle;Signal;HPM_P1;HPM_P2
2022/03/06 16:58:41;;;;;;;;;;;23.90;22.80;;;;;;5039546;28;19978;-70
2022/03/06 17:01:08;;;;;;;;;;;23.80;22.80;;;;;;5057656;28;19978;-71
2022/03/06 17:03:35;;;;;;;;;;;23.80;22.80;;;;;;5057154;28;19994;-70
2022/03/06 17:06:04;;;;;;;;;;;23.80;22.90;;;;;;5047002;28;19925;-69
2022/03/06 17:08:34;;;;;;;;;;;23.80;23.00;;;;;;5046963;28;19971;-69
2022/03/06 17:11:02;;;;;;;;;;;23.70;23.50;;;;;;5048232;28;19934;-69
2022/03/06 17:13:29;;;;;;;;;;;23.70;23.10;;;;;;5052351;28;19929;-69
2022/03/06 17:15:56;;;;;;;;;;;23.80;23.20;;;;;;5047098;28;19929;-69
2022/03/06 17:18:24;;;;;;;;;;;23.70;23.20;;;;;;5048834;28;19979;-69
2022/03/06 17:20:51;;;;;;;;;;;23.70;23.30;;;;;;5056502;28;20012;-70
2022/03/06 17:23:18;;;;;;;;;;;23.70;23.40;;;;;;5047505;28;19961;-70
2022/03/06 17:25:45;;;;;;;;;;;23.60;23.40;;;;;;5049633;28;19982;-72
2022/03/06 17:28:12;;;;;;;;;;;23.70;23.50;;;;;;5049027;28;19971;-68
2022/03/06 17:30:41;;;;;;;;;;;23.60;23.50;;;;;;5052045;28;20382;-69
2022/03/06 17:33:09;;;;;;;;;;;23.60;23.60;;;;;;5053115;28;20063;-72
2022/03/06 17:35:36;;;;;;;;;;;23.60;23.60;;;;;;5049968;28;20000;-69
2022/03/06 17:38:07;;;;;;;;;;;23.60;23.70;;;;;;5048761;28;19928;-68
2022/03/06 17:40:34;;;;;;;;;;;23.60;23.80;;;;;;5049675;28;20348;-68
2022/03/06 17:43:01;;;;;;;;;;;23.50;23.70;;;;;;5048638;28;19925;-67
2022/03/06 17:45:28;;;;;;;;;;;23.50;23.80;;;;;;5049026;28;20046;-67
2022/03/06 17:47:55;;;;;;;;;;;23.50;23.80;;;;;;5048692;28;20386;-67
2022/03/06 17:50:22;;;;;;;;;;;23.50;23.90;;;;;;5048680;28;20058;-67
2022/03/06 17:52:49;;;;;;;;;;;23.50;23.90;;;;;;5048722;28;19932;-67
2022/03/06 17:55:15;;;;;;;;;;;23.50;24.00;;;;;;5048877;28;19975;-67
2022/03/06 17:57:42;;;;;;;;;;;23.40;24.00;;;;;;5048333;28;19929;-67
2022/03/06 18:00:12;;;;;;;;;;;23.40;24.10;;;;;;5049044;28;19951;-67
2022/03/06 18:02:39;;;;;;;;;;;23.40;24.10;;;;;;5048448;28;19929;-67
2022/03/06 18:05:07;;;;;;;;;;;23.40;24.20;;;;;;5049055;28;19928;-67
2022/03/06 18:07:34;;;;;;;;;;;23.30;24.20;;;;;;5048059;28;19971;-67
2022/03/06 18:10:01;;;;;;;;;;;23.30;24.20;;;;;;5048538;28;19925;-67
2022/03/06 18:12:28;;;;;;;;;;;23.30;24.30;;;;;;5048490;28;19979;-67
2022/03/06 18:14:56;;;;;;;;;;;23.30;24.30;;;;;;5048875;28;19925;-67
2022/03/06 18:17:24;;;;;;;;;;;23.30;24.30;;;;;;5048402;28;19924;-67
2022/03/06 18:19:51;;;;;;;;;;;23.20;24.30;;;;;;5048024;28;20389;-67
2022/03/06 18:22:19;;;;;;;;;;;23.20;24.30;;;;;;5048336;28;20382;-68
2022/03/06 18:24:46;;;;;;;;;;;23.20;24.40;;;;;;5048673;28;19994;-67
2022/03/06 18:27:13;;;;;;;;;;;23.20;24.40;;;;;;5048637;28;19925;-67
2022/03/06 18:29:40;;;;;;;;;;;23.20;24.40;;;;;;5048640;28;20460;-67
2022/03/06 18:32:10;;;;;;;;;;;23.20;24.40;;;;;;5048160;28;19936;-67
2022/03/06 18:34:39;;;;;;;;;;;23.20;24.40;;;;;;5048631;28;19928;-67
2022/03/06 18:37:06;;;;;;;;;;;23.20;24.40;;;;;;5047277;28;20287;-67
2022/03/06 18:39:34;;;;;;;;;;;23.20;24.40;;;;;;5048414;28;19978;-67
2022/03/06 18:42:01;;;;;;;;;;;23.20;24.50;;;;;;5079911;28;20156;-67
2022/03/06 18:44:27;;;;;;;;;;;23.20;24.50;;;;;;5048102;28;19925;-67
2022/03/06 18:46:55;;;;;;;;;;;23.20;24.50;;;;;;5047674;28;19925;-67
2022/03/06 18:49:23;;;;;;;;;;;23.20;24.50;;;;;;5048198;28;20305;-67
2022/03/06 18:51:51;;;;;;;;;;;23.10;24.50;;;;;;5047952;28;19933;-67
2022/03/06 18:54:19;;;;;;;;;;;23.10;24.50;;;;;;5048226;28;20022;-67
2022/03/06 18:56:46;;;;;;;;;;;23.10;24.50;;;;;;5047452;28;19924;-67
2022/03/06 18:59:13;;;;;;;;;;;23.10;24.60;;;;;;5048045;28;20431;-67
2022/03/06 19:01:40;;;;;;;;;;;23.10;24.60;;;;;;5047004;28;19968;-67
2022/03/06 19:04:07;;;;;;;;;;;23.00;24.70;;;;;;5048042;28;19929;-67
2022/03/06 19:06:34;;;;;;;;;;;23.00;24.70;;;;;;5047326;28;19971;-68
2022/03/06 19:09:07;;;;;;;;;;;23.00;24.70;;;;;;5047333;28;20409;-67
2022/03/06 19:11:35;;;;;;;;;;;23.00;24.70;;;;;;5047581;28;19925;-67
2022/03/06 19:14:03;;;;;;;;;;;23.00;24.80;;;;;;5047784;28;19928;-67
2022/03/06 19:16:30;;;;;;;;;;;23.00;24.80;;;;;;5047196;28;19933;-67
2022/03/06 19:18:58;;;;;;;;;;;23.00;24.80;;;;;;5047549;28;20003;-67
2022/03/06 19:21:25;;;;;;;;;;;23.00;24.80;;;;;;5046615;28;20011;-67
2022/03/06 19:23:52;;;;;;;;;;;22.90;24.80;;;;;;5047353;28;19929;-67
2022/03/06 19:26:19;;;;;;;;;;;22.90;24.80;;;;;;5047436;28;19979;-67
2022/03/06 19:28:46;;;;;;;;;;;22.90;24.80;;;;;;5046921;28;19974;-67
2022/03/06 19:31:14;;;;;;;;;;;22.90;24.80;;;;;;5047012;28;19970;-67
2022/03/06 19:33:43;;;;;;;;;;;22.90;24.90;;;;;;5046740;28;20008;-67
2022/03/06 19:36:10;;;;;;;;;;;22.90;24.90;;;;;;5047474;28;19971;-67
2022/03/06 19:38:40;;;;;;;;;;;22.90;24.90;;;;;;5046361;28;20085;-67
2022/03/06 19:41:07;;;;;;;;;;;22.90;24.80;;;;;;5046132;28;19994;-67
2022/03/06 19:43:34;;;;;;;;;;;22.90;24.80;;;;;;5047058;28;20101;-67
2022/03/06 19:46:04;;;;;;;;;;;22.90;24.80;;;;;;5046913;28;20145;-67
2022/03/06 19:48:32;;;;;;;;;;;23.00;24.80;;;;;;5045864;28;19925;-67
2022/03/06 19:51:00;;;;;;;;;;;22.90;24.70;;;;;;5046486;28;19974;-67
2022/03/06 19:53:27;;;;;;;;;;;22.90;24.80;;;;;;5046736;28;19940;-67
2022/03/06 19:55:54;;;;;;;;;;;22.90;24.80;;;;;;5046845;28;19971;-67
2022/03/06 19:58:21;;;;;;;;;;;22.90;24.80;;;;;;5046377;28;20515;-67
2022/03/06 20:00:48;;;;;;;;;;;22.90;24.80;;;;;;5046709;28;19932;-67
2022/03/06 20:03:15;;;;;;;;;;;22.90;24.80;;;;;;5046395;28;19925;-67
2022/03/06 20:05:42;;;;;;;;;;;22.90;24.90;;;;;;5046558;28;20340;-67
2022/03/06 20:08:09;;;;;;;;;;;22.90;24.90;;;;;;5045975;28;19940;-67
2022/03/06 20:10:38;;;;;;;;;;;22.90;24.90;;;;;;5047139;28;19933;-67
2022/03/06 20:13:05;;;;;;;;;;;22.80;24.80;;;;;;5046163;28;19929;-67
2022/03/06 20:15:33;;;;;;;;;;;22.90;24.90;;;;;;5046822;28;19982;-67
2022/03/06 20:18:00;;;;;;;;;;;22.80;24.90;;;;;;5046525;28;20293;-67
2022/03/06 20:20:27;;;;;;;;;;;22.80;24.90;;;;;;5046253;28;19933;-67
2022/03/06 20:22:54;;;;;;;;;;;22.80;25.00;;;;;;5046252;28;19925;-67
2022/03/06 20:25:21;;;;;;;;;;;22.80;25.00;;;;;;5046596;28;19925;-67
2022/03/06 20:27:48;;;;;;;;;;;22.80;25.00;;;;;;5046492;28;19932;-67
2022/03/06 20:30:36;;;;;;;;;;;22.80;25.10;;;;;;5046028;28;19925;-67
2022/03/06 20:33:03;;;;;;;;;;;22.80;25.10;;;;;;5045981;28;20094;-66
2022/03/06 20:35:31;;;;;;;;;;;22.80;25.10;;;;;;5046384;28;20163;-67
2022/03/06 20:37:58;;;;;;;;;;;22.80;25.10;;;;;;5045824;28;20139;-67
2022/03/06 20:40:25;;;;;;;;;;;22.80;25.10;;;;;;5046214;28;19925;-67
2022/03/06 20:42:52;;;;;;;;;;;22.80;25.10;;;;;;5046000;28;20293;-67
2022/03/06 20:45:19;;;;;;;;;;;22.70;25.10;;;;;;5046288;28;19929;-67
2022/03/06 20:47:46;;;;;;;;;;;22.70;25.10;;;;;;5045861;28;19981;-67
2022/03/06 20:50:18;;;;;;;;;;;22.70;25.10;;;;;;5045990;28;19924;-67
2022/03/06 20:52:46;;;;;;;;;;;22.70;25.10;;;;;;5046134;28;19935;-67
2022/03/06 20:55:16;;;;;;;;;;;22.70;25.10;;;;;;5046167;28;19972;-67
2022/03/06 20:57:43;;;;;;;;;;;22.70;25.10;;;;;;5045829;28;20093;-67
2022/03/06 21:00:10;;;;;;;;;;;22.70;25.10;;;;;;5048826;28;19924;-67
2022/03/06 21:02:37;;;;;;;;;;;22.70;25.20;;;;;;5049464;28;19925;-67
2022/03/06 21:05:05;;;;;;;;;;;22.70;25.20;;;;;;5050333;28;20068;-67
2022/03/06 21:07:33;;;;;;;;;;;22.70;25.20;;;;;;5049489;28;19925;-67
2022/03/06 21:10:00;;;;;;;;;;;22.70;25.20;;;;;;5049607;28;19925;-67
2022/03/06 21:12:27;;;;;;;;;;;22.70;25.30;;;;;;5049745;28;19928;-67
2022/03/06 21:14:54;;;;;;;;;;;22.70;25.30;;;;;;5049788;28;19951;-67
2022/03/06 21:17:21;;;;;;;;;;;22.70;25.30;;;;;;5049550;28;19994;-67
2022/03/06 21:19:48;;;;;;;;;;;22.60;25.30;;;;;;5049693;28;19947;-67
2022/03/06 21:22:15;;;;;;;;;;;22.70;25.30;;;;;;5049195;28;19925;-67
2022/03/06 21:24:42;;;;;;;;;;;22.70;25.30;;;;;;5049686;28;19967;-67
2022/03/06 21:27:11;;;;;;;;;;;22.60;25.30;;;;;;5049140;28;19964;-67
2022/03/06 21:29:38;;;;;;;;;;;22.60;25.30;;;;;;5049985;28;19975;-67
2022/03/06 21:32:09;;;;;;;;;;;22.60;25.30;;;;;;5048407;28;19935;-67
2022/03/06 21:34:38;;;;;;;;;;;22.60;25.30;;;;;;5049830;28;20453;-67
2022/03/06 21:37:06;;;;;;;;;;;22.60;25.30;;;;;;5049131;28;20521;-67
2022/03/06 21:39:34;;;;;;;;;;;22.60;25.30;;;;;;5049428;28;19990;-67
2022/03/06 21:42:01;;;;;;;;;;;22.60;25.80;;;;;;5049223;28;20370;-67
2022/03/06 21:44:28;;;;;;;;;;;22.50;25.30;;;;;;5048884;28;20448;-67
2022/03/06 21:46:55;;;;;;;;;;;22.60;25.40;;;;;;5049057;28;20366;-68
2022/03/06 21:49:23;;;;;;;;;;;22.50;25.40;;;;;;5049477;28;19925;-67
2022/03/06 21:51:50;;;;;;;;;;;22.50;25.40;;;;;;5048578;28;20574;-67
2022/03/06 21:54:19;;;;;;;;;;;22.50;25.40;;;;;;5049260;28;19955;-67
2022/03/06 21:56:46;;;;;;;;;;;22.50;25.40;;;;;;5048161;28;19951;-67
2022/03/06 21:59:15;;;;;;;;;;;22.50;25.40;;;;;;5048937;28;19932;-67
2022/03/06 22:01:43;;;;;;;;;;;22.50;25.40;;;;;;5048975;28;20428;-67
2022/03/06 22:04:10;;;;;;;;;;;22.50;25.40;;;;;;5080904;28;19925;-67
2022/03/06 22:06:37;;;;;;;;;;;22.50;25.40;;;;;;5048500;28;19972;-67
2022/03/06 22:09:05;;;;;;;;;;;22.50;25.40;;;;;;5048964;28;19925;-67
2022/03/06 22:11:33;;;;;;;;;;;22.50;25.50;;;;;;5047573;28;19958;-67
2022/03/06 22:14:06;;;;;;;;;;;22.40;25.40;;;;;;5048679;28;19979;-67
2022/03/06 22:16:33;;;;;;;;;;;22.50;25.50;;;;;;5048569;28;19932;-67
2022/03/06 22:19:00;;;;;;;;;;;22.50;25.50;;;;;;5048828;28;19929;-67
2022/03/06 22:21:27;;;;;;;;;;;22.50;25.50;;;;;;5047872;28;19971;-67
2022/03/06 22:23:54;;;;;;;;;;;22.50;25.50;;;;;;5048559;28;19932;-67
2022/03/06 22:26:21;;;;;;;;;;;22.50;25.60;;;;;;5048373;28;19971;-67
2022/03/06 22:28:49;;;;;;;;;;;22.50;25.60;;;;;;5048462;28;19925;-67
2022/03/06 22:31:17;;;;;;;;;;;22.50;25.60;;;;;;5047669;28;19932;-67
2022/03/06 22:33:44;;;;;;;;;;;22.40;25.60;;;;;;5047823;28;20504;-67
2022/03/06 22:36:12;;;;;;;;;;;22.50;25.60;;;;;;5048334;28;20366;-67
2022/03/06 22:38:39;;;;;;;;;;;22.50;25.60;;;;;;5047845;28;20382;-67
2022/03/06 22:41:06;;;;;;;;;;;22.50;25.60;;;;;;5048472;28;19932;-67
2022/03/06 22:43:33;;;;;;;;;;;22.50;25.60;;;;;;5048239;28;19933;-67
2022/03/06 22:46:00;;;;;;;;;;;22.50;25.60;;;;;;5047923;28;20172;-67
2022/03/06 22:48:27;;;;;;;;;;;22.50;25.60;;;;;;5047727;28;19933;-67
2022/03/06 22:50:54;;;;;;;;;;;22.50;25.60;;;;;;5048094;28;19984;-67
2022/03/06 22:53:21;;;;;;;;;;;22.50;25.70;;;;;;5047872;28;20140;-67
2022/03/06 22:55:49;;;;;;;;;;;22.40;25.60;;;;;;5047861;28;20008;-67
2022/03/06 22:58:17;;;;;;;;;;;22.50;25.70;;;;;;5047656;28;20028;-67
2022/03/06 23:01:04;;;;;;;;;;;22.50;25.70;;;;;;5047859;28;20277;-67
2022/03/06 23:03:31;;;;;;;;;;;22.40;25.70;;;;;;5073711;28;19928;-67
2022/03/06 23:08:45;;;;;;;;;;;22.40;25.70;;;;;;5046882;28;20408;-67
2022/03/06 23:11:12;;;;;;;;;;;22.40;25.70;;;;;;5047744;28;19971;-67
2022/03/06 23:13:41;;;;;;;;;;;22.40;25.70;;;;;;5047055;28;19928;-67
2022/03/06 23:16:08;;;;;;;;;;;22.50;25.70;;;;;;5047144;28;20217;-67
2022/03/06 23:18:35;;;;;;;;;;;22.40;25.70;;;;;;5046715;28;19975;-67
2022/03/06 23:21:02;;;;;;;;;;;22.50;25.80;;;;;;5047268;28;19929;-67
2022/03/06 23:23:29;;;;;;;;;;;22.40;25.80;;;;;;5047153;28;20443;-66
2022/03/06 23:25:56;;;;;;;;;;;22.50;25.80;;;;;;5047703;28;19975;-66
2022/03/06 23:28:23;;;;;;;;;;;22.40;25.80;;;;;;5046827;28;19925;-66
2022/03/06 23:30:52;;;;;;;;;;;22.40;25.80;;;;;;5047139;28;19964;-66
2022/03/06 23:33:19;;;;;;;;;;;22.40;25.80;;;;;;5046497;28;19925;-66
2022/03/06 23:35:48;;;;;;;;;;;22.40;25.80;;;;;;5047217;28;20209;-66
2022/03/06 23:38:15;;;;;;;;;;;22.40;25.80;;;;;;5046702;28;19947;-66
2022/03/06 23:40:42;;;;;;;;;;;22.40;25.80;;;;;;5047148;28;19978;-66
2022/03/06 23:43:09;;;;;;;;;;;22.40;26.30;;;;;;5046715;28;19929;-66
2022/03/06 23:45:36;;;;;;;;;;;22.40;25.90;;;;;;5046949;28;19972;-66
2022/03/06 23:48:03;;;;;;;;;;;22.40;25.90;;;;;;5045553;28;19933;-66
2022/03/06 23:50:30;;;;;;;;;;;22.40;25.90;;;;;;5047006;28;20098;-66
2022/03/06 23:52:57;;;;;;;;;;;22.40;25.90;;;;;;5046474;28;19986;-67
2022/03/06 23:55:24;;;;;;;;;;;22.40;25.90;;;;;;5046889;28;20004;-66
2022/03/06 23:57:51;;;;;;;;;;;22.40;25.90;;;;;;5045803;28;20340;-66
